createdAt,value
2022-11-05T00:02:07.514Z,10.35
2022-11-05T00:04:56.390Z,10.43
2022-11-05T00:07:53.235Z,9.50
2022-11-05T00:10:24.540Z,9.13
2022-11-05T00:13:13.728Z,10.43
2022-11-05T00:16:02.178Z,11.75
2022-11-05T00:18:33.764Z,8.48
2022-11-05T00:21:04.209Z,9.38
2022-11-05T00:23:52.221Z,9.88
2022-11-05T00:26:22.449Z,10.45
2022-11-05T00:28:54.402Z,11.57
2022-11-05T00:31:24.737Z,11.98
2022-11-05T00:33:54.854Z,10.20
2022-11-05T00:36:25.384Z,12.40
2022-11-05T00:38:56.505Z,10.50
2022-11-05T00:41:26.792Z,12.63
2022-11-05T00:44:15.641Z,11.07
2022-11-05T00:46:46.125Z,10.80
2022-11-05T00:49:32.966Z,12.52
2022-11-05T00:52:21.628Z,12.23
2022-11-05T00:54:52.162Z,11.88
2022-11-05T00:57:22.285Z,12.75
2022-11-05T00:59:53.074Z,12.27
2022-11-05T01:02:23.639Z,13.63
2022-11-05T01:04:54.005Z,13.35
2022-11-05T01:07:23.959Z,13.75
2022-11-05T01:09:54.318Z,15.02
2022-11-05T01:12:24.358Z,13.45
2022-11-05T01:14:54.506Z,13.60
2022-11-05T01:17:24.686Z,12.77
2022-11-05T01:19:55.121Z,13.45
2022-11-05T01:22:25.357Z,12.00
2022-11-05T01:24:55.423Z,13.65
2022-11-05T01:27:25.448Z,14.60
2022-11-05T01:29:55.754Z,15.63
2022-11-05T01:32:26.198Z,14.68
2022-11-05T01:34:56.451Z,14.30
2022-11-05T01:37:26.451Z,12.50
2022-11-05T01:39:56.988Z,13.20
2022-11-05T01:42:27.765Z,12.27
2022-11-05T01:44:58.162Z,12.65
2022-11-05T01:47:46.233Z,12.40
2022-11-05T01:50:25.001Z,12.80
2022-11-05T01:52:59.845Z,12.48
2022-11-05T01:55:30.693Z,11.10
2022-11-05T01:58:01.088Z,10.93
2022-11-05T02:00:31.394Z,11.05
2022-11-05T02:03:01.529Z,9.60
2022-11-05T02:05:31.626Z,10.98
2022-11-05T02:08:01.923Z,8.68
2022-11-05T02:10:35.330Z,9.25
2022-11-05T02:13:05.546Z,10.43
2022-11-05T02:15:39.329Z,8.90
2022-11-05T02:18:23.310Z,10.05
2022-11-05T02:20:56.722Z,9.43
2022-11-05T02:23:38.817Z,10.90
2022-11-05T02:26:27.378Z,9.70
2022-11-05T02:29:04.272Z,8.73
2022-11-05T02:31:43.598Z,9.85
2022-11-05T02:34:36.426Z,9.77
2022-11-05T02:37:15.757Z,9.60
2022-11-05T02:39:51.893Z,8.57
2022-11-05T02:42:21.962Z,8.82
2022-11-05T02:44:52.733Z,9.55
2022-11-05T02:47:26.972Z,8.10
2022-11-05T02:49:57.218Z,8.13
2022-11-05T02:52:36.034Z,9.27
2022-11-05T02:55:15.487Z,8.20
2022-11-05T02:57:49.283Z,8.25
2022-11-05T03:00:40.720Z,8.18
2022-11-05T03:03:14.363Z,8.07
2022-11-05T03:06:07.698Z,8.77
2022-11-05T03:08:59.149Z,8.48
2022-11-05T03:11:30.077Z,8.60
2022-11-05T03:14:06.340Z,8.00
2022-11-05T03:19:28.940Z,7.45
2022-11-05T03:22:10.764Z,7.68
2022-11-05T03:24:41.692Z,8.63
2022-11-05T03:27:12.855Z,9.43
2022-11-05T03:29:46.950Z,8.27
2022-11-05T03:32:17.166Z,8.25
2022-11-05T03:34:59.143Z,7.78
2022-11-05T03:37:29.631Z,8.30
2022-11-05T03:40:00.709Z,9.27
2022-11-05T03:42:32.329Z,8.63
2022-11-05T03:45:02.777Z,8.23
2022-11-05T03:47:37.392Z,11.55
2022-11-05T03:50:10.282Z,9.75
2022-11-05T03:52:42.376Z,8.57
2022-11-05T03:55:12.709Z,9.90
2022-11-05T03:57:43.819Z,8.20
2022-11-05T04:00:14.156Z,8.35
2022-11-05T04:02:44.301Z,10.57
2022-11-05T04:05:14.656Z,10.77
2022-11-05T04:08:03.960Z,8.93
2022-11-05T04:10:52.286Z,12.00
2022-11-05T04:13:25.779Z,11.50
2022-11-05T04:16:17.245Z,11.40
2022-11-05T04:18:47.366Z,11.57
2022-11-05T04:21:35.445Z,12.02
2022-11-05T04:24:11.371Z,12.90
2022-11-05T04:26:42.513Z,11.27
2022-11-05T04:29:47.924Z,9.88
2022-11-05T04:32:17.942Z,11.93
2022-11-05T04:34:48.030Z,10.90
2022-11-05T04:37:18.048Z,10.50
2022-11-05T04:39:48.043Z,9.77
2022-11-05T04:42:18.050Z,11.32
2022-11-05T04:44:48.227Z,9.80
2022-11-05T04:47:18.364Z,11.68
2022-11-05T04:49:48.385Z,10.88
2022-11-05T04:52:19.092Z,11.70
2022-11-05T04:54:49.234Z,10.35
2022-11-05T04:57:19.480Z,10.38
2022-11-05T04:59:53.214Z,8.23
2022-11-05T05:02:23.487Z,10.02
2022-11-05T05:04:53.589Z,9.57
2022-11-05T05:07:23.834Z,9.95
2022-11-05T05:09:54.179Z,9.40
2022-11-05T05:12:24.921Z,8.93
2022-11-05T05:14:54.935Z,10.43
2022-11-05T05:17:24.975Z,10.35
2022-11-05T05:20:16.290Z,10.20
2022-11-05T05:22:46.259Z,11.15
2022-11-05T05:25:19.023Z,10.55
2022-11-05T05:27:51.648Z,10.65
2022-11-05T05:30:21.752Z,11.10
2022-11-05T05:32:51.909Z,11.07
2022-11-05T05:35:21.898Z,11.65
2022-11-05T05:37:51.912Z,12.75
2022-11-05T05:40:21.922Z,11.80
2022-11-05T05:42:56.190Z,11.25
2022-11-05T05:45:26.244Z,11.77
2022-11-05T05:47:57.802Z,12.30
2022-11-05T05:50:27.901Z,11.60
2022-11-05T05:52:57.944Z,11.95
2022-11-05T05:55:28.233Z,10.88
2022-11-05T05:57:58.571Z,10.80
2022-11-05T06:00:28.696Z,11.52
2022-11-05T06:03:01.441Z,9.45
2022-11-05T06:05:31.652Z,12.43
2022-11-05T06:08:01.668Z,10.98
2022-11-05T06:10:32.009Z,11.52
2022-11-05T06:13:02.338Z,10.25
2022-11-05T06:15:35.926Z,10.70
2022-11-05T06:18:06.672Z,13.50
2022-11-05T06:20:36.752Z,10.32
2022-11-05T06:23:06.759Z,9.65
2022-11-05T06:25:41.023Z,9.98
2022-11-05T06:28:11.768Z,9.27
2022-11-05T06:30:41.824Z,10.13
2022-11-05T06:33:12.212Z,9.85
2022-11-05T06:35:42.966Z,9.70
2022-11-05T06:38:13.161Z,10.45
2022-11-05T06:40:43.300Z,11.18
2022-11-05T06:43:13.698Z,10.57
2022-11-05T06:45:44.131Z,10.35
2022-11-05T06:48:14.238Z,10.32
2022-11-05T06:50:47.219Z,12.18
2022-11-05T06:53:17.321Z,11.77
2022-11-05T06:55:49.190Z,11.23
2022-11-05T06:58:19.438Z,12.60
2022-11-05T07:00:49.685Z,11.13
2022-11-05T07:03:19.758Z,11.75
2022-11-05T07:05:50.442Z,12.05
2022-11-05T07:08:20.756Z,12.77
2022-11-05T07:10:50.875Z,11.45
2022-11-05T07:13:21.139Z,13.35
2022-11-05T07:15:51.163Z,12.35
2022-11-05T07:18:21.228Z,12.68
2022-11-05T07:20:51.249Z,14.85
2022-11-05T07:23:21.345Z,11.75
2022-11-05T07:25:51.361Z,13.05
2022-11-05T07:28:21.472Z,12.95
2022-11-05T07:30:51.417Z,11.68
2022-11-05T07:33:21.561Z,11.43
2022-11-05T07:35:53.612Z,9.75
2022-11-05T07:38:23.677Z,10.38
2022-11-05T07:40:54.145Z,11.90
2022-11-05T07:43:24.183Z,10.38
2022-11-05T07:45:54.315Z,12.05
2022-11-05T07:48:24.501Z,12.35
2022-11-05T07:50:54.635Z,13.38
2022-11-05T07:53:24.864Z,14.13
2022-11-05T07:55:54.946Z,12.90
2022-11-05T07:58:25.214Z,9.98
2022-11-05T08:00:55.722Z,11.23
2022-11-05T08:03:26.418Z,11.80
2022-11-05T08:05:59.564Z,10.18
2022-11-05T08:08:29.775Z,10.18
2022-11-05T08:11:09.403Z,10.15
2022-11-05T08:13:39.641Z,10.55
2022-11-05T08:16:16.799Z,9.02
2022-11-05T08:18:47.001Z,8.65
2022-11-05T08:21:17.085Z,8.48
2022-11-05T08:23:47.315Z,9.18
2022-11-05T08:26:17.272Z,11.07
2022-11-05T08:28:47.286Z,8.90
2022-11-05T08:31:19.230Z,9.18
2022-11-05T08:33:49.402Z,9.20
2022-11-05T08:36:20.139Z,9.00
2022-11-05T08:38:50.563Z,10.43
2022-11-05T08:41:20.691Z,10.77
2022-11-05T08:43:51.443Z,11.60
2022-11-05T08:46:21.778Z,10.68
2022-11-05T08:48:52.057Z,9.90
2022-11-05T08:51:24.322Z,9.75
2022-11-05T08:53:57.593Z,11.02
2022-11-05T08:56:27.667Z,8.88
2022-11-05T08:58:57.849Z,8.82
2022-11-05T09:01:28.099Z,10.20
2022-11-05T09:03:58.160Z,9.55
2022-11-05T09:06:28.282Z,8.32
2022-11-05T09:08:58.947Z,8.52
2022-11-05T09:11:49.663Z,8.20
2022-11-05T09:14:19.614Z,8.77
2022-11-05T09:16:49.731Z,7.72
2022-11-05T09:19:19.959Z,8.65
2022-11-05T09:21:49.975Z,7.35
2022-11-05T09:24:19.978Z,8.10
2022-11-05T09:26:50.379Z,8.13
2022-11-05T09:29:20.700Z,7.47
2022-11-05T09:31:51.304Z,7.18
2022-11-05T09:34:21.680Z,8.00
2022-11-05T09:36:51.725Z,7.45
2022-11-05T09:39:21.789Z,7.30
2022-11-05T09:41:52.540Z,6.95
2022-11-05T09:44:24.646Z,6.57
2022-11-05T09:47:05.176Z,7.50
2022-11-05T09:49:42.056Z,8.20
2022-11-05T09:52:35.498Z,8.35
2022-11-05T09:55:06.310Z,9.85
2022-11-05T09:57:39.537Z,10.32
2022-11-05T10:00:10.817Z,10.68
2022-11-05T10:02:46.167Z,9.75
2022-11-05T10:05:16.478Z,10.75
2022-11-05T10:07:47.829Z,13.98
2022-11-05T10:10:40.895Z,14.13
2022-11-05T10:13:31.639Z,12.52
2022-11-05T10:16:07.213Z,13.50
2022-11-05T10:18:38.609Z,12.60
2022-11-05T10:21:08.926Z,12.55
2022-11-05T10:23:39.047Z,12.07
2022-11-05T10:26:10.508Z,12.60
2022-11-05T10:28:43.518Z,13.00
2022-11-05T10:31:18.857Z,13.85
2022-11-05T10:33:49.160Z,13.27
2022-11-05T10:36:27.525Z,11.80
2022-11-05T10:39:08.731Z,14.02
2022-11-05T10:41:41.968Z,12.40
2022-11-05T10:44:18.532Z,11.38
2022-11-05T10:46:49.180Z,11.32
2022-11-05T10:49:23.068Z,10.75
2022-11-05T10:51:58.169Z,10.25
2022-11-05T10:54:29.183Z,10.43
2022-11-05T10:57:00.232Z,10.25
2022-11-05T10:59:31.374Z,9.88
2022-11-05T11:02:31.458Z,12.05
2022-11-05T11:05:01.785Z,10.55
2022-11-05T11:07:32.162Z,10.50
2022-11-05T11:10:02.521Z,11.15
2022-11-05T11:12:38.282Z,11.15
2022-11-05T11:15:38.518Z,11.13
2022-11-05T11:18:27.194Z,10.65
2022-11-05T11:20:57.827Z,10.35
2022-11-05T11:23:28.094Z,10.57
2022-11-05T11:26:02.367Z,10.82
2022-11-05T11:28:40.017Z,10.57
2022-11-05T11:31:11.395Z,11.25
2022-11-05T11:33:41.650Z,11.70
2022-11-05T11:36:11.837Z,10.23
2022-11-05T11:38:41.815Z,10.35
2022-11-05T11:41:28.279Z,11.38
2022-11-05T11:46:28.043Z,9.98
2022-11-05T11:48:57.991Z,10.52
2022-11-05T11:51:27.961Z,13.25
2022-11-05T11:54:01.404Z,14.50
2022-11-05T11:56:33.608Z,15.63
2022-11-05T11:59:04.716Z,14.90
2022-11-05T12:01:53.201Z,14.52
2022-11-05T12:04:42.034Z,15.77
2022-11-05T12:07:15.502Z,14.40
2022-11-05T12:09:45.448Z,15.25
2022-11-05T12:12:16.248Z,13.52
2022-11-05T12:15:24.723Z,16.70
2022-11-05T12:17:55.027Z,14.25
2022-11-05T12:20:28.360Z,15.38
2022-11-05T12:22:58.644Z,16.33
2022-11-05T12:25:42.015Z,16.05
2022-11-05T12:28:57.725Z,17.63
2022-11-05T12:31:40.879Z,18.58
2022-11-05T12:34:13.740Z,20.08
2022-11-05T12:37:02.272Z,24.92
2022-11-05T12:39:36.457Z,28.70
2022-11-05T12:42:06.515Z,28.42
2022-11-05T12:44:39.551Z,25.75
2022-11-05T12:47:17.425Z,26.00
2022-11-05T12:49:50.426Z,24.52
2022-11-05T12:52:39.085Z,21.88
2022-11-05T12:55:22.636Z,22.70
2022-11-05T12:57:54.529Z,23.63
2022-11-05T13:00:25.608Z,24.73
2022-11-05T13:03:14.557Z,27.05
2022-11-05T13:05:55.014Z,26.05
2022-11-05T13:08:25.569Z,23.85
2022-11-05T13:11:02.773Z,23.63
2022-11-05T13:13:51.420Z,24.40
2022-11-05T13:16:37.430Z,23.50
2022-11-05T13:19:11.518Z,24.63
2022-11-05T13:21:41.769Z,20.17
2022-11-05T13:24:38.294Z,23.55
2022-11-05T13:27:08.572Z,20.80
2022-11-05T13:29:43.485Z,22.35
2022-11-05T13:32:28.293Z,22.80
2022-11-05T13:34:59.859Z,24.90
2022-11-05T13:38:09.150Z,25.30
2022-11-05T13:40:44.997Z,26.35
2022-11-05T13:43:20.967Z,28.92
2022-11-05T13:46:06.109Z,28.80
2022-11-05T13:48:54.926Z,31.23
2022-11-05T13:51:28.429Z,27.65
2022-11-05T13:54:16.861Z,27.52
2022-11-05T13:56:54.647Z,29.45
2022-11-05T13:59:31.496Z,26.75
2022-11-05T14:04:34.369Z,24.38
2022-11-05T14:07:11.747Z,24.73
2022-11-05T14:09:42.103Z,26.15
2022-11-05T14:12:24.033Z,26.23
2022-11-05T14:14:59.010Z,22.05
2022-11-05T14:17:30.696Z,22.58
2022-11-05T14:20:07.634Z,24.90
2022-11-05T14:22:39.774Z,22.90
2022-11-05T14:25:22.455Z,22.83
2022-11-05T14:27:53.689Z,24.27
2022-11-05T14:30:42.771Z,23.13
2022-11-05T14:33:20.351Z,28.00
2022-11-05T14:35:50.671Z,29.02
2022-11-05T14:38:21.518Z,30.55
2022-11-05T14:40:51.917Z,30.40
2022-11-05T14:43:23.147Z,32.30
2022-11-05T14:46:03.089Z,31.85
2022-11-05T14:48:33.206Z,29.65
2022-11-05T14:51:03.566Z,25.83
2022-11-05T14:53:37.441Z,28.83
2022-11-05T14:56:12.078Z,27.15
2022-11-05T14:58:43.101Z,31.83
2022-11-05T15:01:16.126Z,34.08
2022-11-05T15:03:47.831Z,37.38
2022-11-05T15:06:22.359Z,39.67
2022-11-05T15:08:53.484Z,30.55
2022-11-05T15:11:41.425Z,26.77
2022-11-05T15:14:21.205Z,26.75
2022-11-05T15:16:52.874Z,25.20
2022-11-05T15:19:26.467Z,24.42
2022-11-05T15:21:57.242Z,27.77
2022-11-05T15:24:29.607Z,30.13
2022-11-05T15:27:08.350Z,26.92
2022-11-05T15:29:38.453Z,26.73
2022-11-05T15:32:14.171Z,26.88
2022-11-05T15:34:44.177Z,25.83
2022-11-05T15:37:15.021Z,25.83
2022-11-05T15:39:46.474Z,22.63
2022-11-05T15:42:17.573Z,22.65
2022-11-05T15:44:48.498Z,20.63
2022-11-05T15:47:22.095Z,19.83
2022-11-05T15:50:03.936Z,20.85
2022-11-05T15:52:40.388Z,20.17
2022-11-05T15:55:10.987Z,22.48
2022-11-05T15:57:50.238Z,22.27
2022-11-05T16:00:25.155Z,23.77
2022-11-05T16:02:55.749Z,22.00
2022-11-05T16:05:26.619Z,23.85
2022-11-05T16:07:56.667Z,29.15
2022-11-05T16:10:30.434Z,33.55
2022-11-05T16:13:21.028Z,34.95
2022-11-05T16:15:55.831Z,35.72
2022-11-05T16:18:27.604Z,35.30
2022-11-05T16:21:08.325Z,35.08
2022-11-05T16:23:43.123Z,27.75
2022-11-05T16:26:55.933Z,26.13
2022-11-05T16:29:19.600Z,24.48
2022-11-05T16:31:52.865Z,21.88
2022-11-05T16:34:43.445Z,19.95
2022-11-05T16:37:14.726Z,18.58
2022-11-05T16:39:45.161Z,20.33
2022-11-05T16:42:38.393Z,18.85
2022-11-05T16:45:09.230Z,18.58
2022-11-05T16:47:39.703Z,18.98
2022-11-05T16:50:39.117Z,17.80
2022-11-05T16:53:09.445Z,17.67
2022-11-05T16:55:39.960Z,17.73
2022-11-05T16:58:15.556Z,20.45
2022-11-05T17:00:45.919Z,19.80
2022-11-05T17:03:16.191Z,20.80
2022-11-05T17:05:46.372Z,19.65
2022-11-05T17:08:16.621Z,19.50
2022-11-05T17:10:46.893Z,21.35
2022-11-05T17:13:17.597Z,20.67
2022-11-05T17:15:51.288Z,19.48
2022-11-05T17:18:21.968Z,21.38
2022-11-05T17:20:53.635Z,18.80
2022-11-05T17:23:24.535Z,16.08
2022-11-05T17:25:57.694Z,16.77
2022-11-05T17:28:27.889Z,16.52
2022-11-05T17:30:58.406Z,17.25
2022-11-05T17:33:32.174Z,16.33
2022-11-05T17:36:02.568Z,24.77
2022-11-05T17:38:32.608Z,25.88
2022-11-05T17:41:02.850Z,27.30
2022-11-05T17:43:32.885Z,29.63
2022-11-05T17:46:04.641Z,30.23
2022-11-05T17:48:34.915Z,33.53
2022-11-05T17:51:04.938Z,35.67
2022-11-05T17:53:35.092Z,36.45
2022-11-05T17:56:05.450Z,33.15
2022-11-05T17:58:35.763Z,37.03
2022-11-05T18:01:06.125Z,37.03
2022-11-05T18:03:37.176Z,35.17
2022-11-05T18:06:07.922Z,32.20
2022-11-05T18:08:38.402Z,35.20
2022-11-05T18:11:08.884Z,32.92
2022-11-05T18:13:39.553Z,24.33
2022-11-05T18:16:10.422Z,21.55
2022-11-05T18:18:40.502Z,22.65
2022-11-05T18:21:10.672Z,18.80
2022-11-05T18:23:40.867Z,18.85
2022-11-05T18:26:11.888Z,17.67
2022-11-05T18:28:43.211Z,17.17
2022-11-05T18:31:18.518Z,17.75
2022-11-05T18:33:51.676Z,15.55
2022-11-05T18:36:21.834Z,13.57
2022-11-05T18:38:52.426Z,13.60
2022-11-05T18:41:22.882Z,15.10
2022-11-05T18:43:53.375Z,14.00
2022-11-05T18:46:56.023Z,14.20
2022-11-05T18:49:14.565Z,12.57
2022-11-05T18:51:44.636Z,14.32
2022-11-05T18:54:15.151Z,14.80
2022-11-05T18:56:48.730Z,14.43
2022-11-05T18:59:36.904Z,16.38
2022-11-05T19:02:09.582Z,14.45
2022-11-05T19:04:43.951Z,15.70
2022-11-05T19:07:25.698Z,16.95
2022-11-05T19:09:56.149Z,19.30
2022-11-05T19:12:26.578Z,16.95
2022-11-05T19:15:02.141Z,18.83
2022-11-05T19:20:04.000Z,16.27
2022-11-05T19:22:34.648Z,17.60
2022-11-05T19:25:05.302Z,17.00
2022-11-05T19:27:37.336Z,19.70
2022-11-05T19:30:08.051Z,17.02
2022-11-05T19:32:39.016Z,19.48
2022-11-05T19:35:09.766Z,17.38
2022-11-05T19:37:39.964Z,19.42
2022-11-05T19:40:10.724Z,19.13
2022-11-05T19:42:41.029Z,23.48
2022-11-05T19:45:38.477Z,24.05
2022-11-05T19:48:02.578Z,21.35
2022-11-05T19:50:32.909Z,20.33
2022-11-05T19:53:03.570Z,20.60
2022-11-05T19:55:33.990Z,19.40
2022-11-05T19:58:04.152Z,18.58
2022-11-05T20:00:35.396Z,21.55
2022-11-05T20:03:06.031Z,21.77
2022-11-05T20:05:36.471Z,23.05
2022-11-05T20:08:06.733Z,22.85
2022-11-05T20:10:38.800Z,21.15
2022-11-05T20:13:09.490Z,22.58
2022-11-05T20:15:40.888Z,21.15
2022-11-05T20:18:11.921Z,21.00
2022-11-05T20:20:42.999Z,19.88
2022-11-05T20:23:13.734Z,18.17
2022-11-05T20:25:44.171Z,16.60
2022-11-05T20:28:14.434Z,16.27
2022-11-05T20:30:44.970Z,17.52
2022-11-05T20:33:15.416Z,15.75
2022-11-05T20:35:45.472Z,18.58
2022-11-05T20:38:15.685Z,18.13
2022-11-05T20:40:45.776Z,17.13
2022-11-05T20:43:15.891Z,17.98
2022-11-05T20:45:46.004Z,18.25
2022-11-05T20:48:16.638Z,15.55
2022-11-05T20:50:46.907Z,18.20
2022-11-05T20:53:16.985Z,17.90
2022-11-05T20:55:47.936Z,18.60
2022-11-05T20:58:18.338Z,15.77
2022-11-05T21:00:56.146Z,18.27
2022-11-05T21:03:28.331Z,20.48
2022-11-05T21:06:01.185Z,18.48
2022-11-05T21:08:31.382Z,18.30
2022-11-05T21:11:02.197Z,16.52
2022-11-05T21:13:32.781Z,18.88
2022-11-05T21:16:02.957Z,17.67
2022-11-05T21:18:33.621Z,18.15
2022-11-05T21:21:14.495Z,15.60
2022-11-05T21:23:44.768Z,16.42
2022-11-05T21:26:15.456Z,16.63
2022-11-05T21:28:45.571Z,16.10
2022-11-05T21:31:15.913Z,14.02
2022-11-05T21:33:48.712Z,16.52
2022-11-05T21:36:21.036Z,18.13
2022-11-05T21:38:51.206Z,17.33
2022-11-05T21:41:21.360Z,15.93
2022-11-05T21:43:51.465Z,19.77
2022-11-05T21:46:22.525Z,19.38
2022-11-05T21:48:52.701Z,19.20
2022-11-05T21:51:40.916Z,21.75
2022-11-05T21:54:30.261Z,20.88
2022-11-05T21:57:18.612Z,18.38
2022-11-05T21:59:56.328Z,17.77
2022-11-05T22:02:29.659Z,15.38
2022-11-05T22:05:01.132Z,15.88
2022-11-05T22:07:35.978Z,14.23
2022-11-05T22:10:08.108Z,13.98
2022-11-05T22:12:39.905Z,11.90
2022-11-05T22:15:10.346Z,10.55
2022-11-05T22:17:45.275Z,10.60
2022-11-05T22:20:17.407Z,10.63
2022-11-05T22:22:47.532Z,10.20
2022-11-05T22:25:17.635Z,11.32
2022-11-05T22:27:47.613Z,11.18
2022-11-05T22:30:17.998Z,11.80
2022-11-05T22:32:48.153Z,11.27
2022-11-05T22:35:18.154Z,11.38
2022-11-05T22:37:48.337Z,10.93
2022-11-05T22:40:22.205Z,10.32
2022-11-05T22:42:53.957Z,13.93
2022-11-05T22:45:24.018Z,11.95
2022-11-05T22:47:53.973Z,13.43
2022-11-05T22:50:23.966Z,14.45
2022-11-05T22:52:55.448Z,14.55
2022-11-05T22:55:26.587Z,14.10
2022-11-05T22:57:56.609Z,13.32
2022-11-05T23:00:36.150Z,12.65
2022-11-05T23:03:06.541Z,10.55
2022-11-05T23:05:36.704Z,9.73
2022-11-05T23:08:25.411Z,9.05
2022-11-05T23:11:13.812Z,9.18
2022-11-05T23:13:43.861Z,8.55
2022-11-05T23:16:32.469Z,7.05
2022-11-05T23:19:21.229Z,8.05
2022-11-05T23:22:12.618Z,7.50
2022-11-05T23:24:43.060Z,8.13
2022-11-05T23:27:13.368Z,10.95
2022-11-05T23:29:43.506Z,8.52
2022-11-05T23:32:25.673Z,9.43
2022-11-05T23:34:59.025Z,10.57
2022-11-05T23:37:48.046Z,9.55
2022-11-05T23:40:22.177Z,9.05
2022-11-05T23:43:10.729Z,8.25
2022-11-05T23:45:56.342Z,8.50
2022-11-05T23:48:31.219Z,11.15
2022-11-05T23:51:03.937Z,10.30
2022-11-05T23:53:37.353Z,10.43
2022-11-05T23:56:08.204Z,10.82
2022-11-05T23:58:39.511Z,9.63
